Hafnia Nordica — 9HA4256 — position and weather

sailwx.info

Track history (hours):
 
Tides and Currents Weather Stations Pressure Air Temp Water Temp Dewpoint Dewpoint Depression Visibility Wind Speed Wind Dir Waves Ship Positions

Hafnia Nordica

Last reported at 2017-Nov-18 23:25 UTC. Time now 2017-Nov-20 09:57 UTC.
Position N 25°34' W 079°33'.

Length 186 m; draft 7.5 m.

Type: Ship. MMSI: 249460000.

Date/timePositionNaut miles runAvg speedWind from/ knotsBaromVisibWave heightAir tempDewpointWater temp
2017-Nov-18 23:25N 25°34' W 079°33'511.0
2017-Nov-18 23:00N 25°39' W 079°33'911.1
2017-Nov-18 22:10N 25°48' W 079°31'211.2
2017-Nov-18 22:01N 25°50' W 079°30'1911.2
2017-Nov-18 20:20N 26°08' W 079°27'711.7
2017-Nov-18 19:43N 26°15' W 079°26'  
2017-Nov-15 01:57N 40°26' W 073°48'4 8.7
2017-Nov-15 01:30N 40°28' W 073°52'611.5
2017-Nov-15 01:00N 40°31' W 073°59'612.3
2017-Nov-15 00:30N 40°36' W 074°03'4 7.5
2017-Nov-15 00:00N 40°39' W 074°06'3 7.0
2017-Nov-14 23:30N 40°39' W 074°11'1 2.9
2017-Nov-14 23:00N 40°38' W 074°12'1 2.2
2017-Nov-14 22:30N 40°37' W 074°12'2 0.5
2017-Nov-14 19:08N 40°35' W 074°13'0 0.0
2017-Nov-14 18:44N 40°35' W 074°13'0 0.0
2017-Nov-14 18:26N 40°35' W 074°13'0 0.0
2017-Nov-14 17:56N 40°35' W 074°13'0 0.0
2017-Nov-14 15:56N 40°35' W 074°13'0 0.0
2017-Nov-14 15:26N 40°35' W 074°13'0 0.0
2017-Nov-14 13:44N 40°35' W 074°13'0 0.0
2017-Nov-14 13:20N 40°35' W 074°13'0 0.0
2017-Nov-14 12:44N 40°35' W 074°13'0 0.0
2017-Nov-14 12:26N 40°35' W 074°13'0 0.0
2017-Nov-14 11:38N 40°35' W 074°13'0 0.0
2017-Nov-14 11:26N 40°35' W 074°13'0 0.0
2017-Nov-14 10:56N 40°35' W 074°13'0 0.0
2017-Nov-14 10:20N 40°35' W 074°13'0 0.0
2017-Nov-14 09:56N 40°35' W 074°13'0 0.0
2017-Nov-14 09:20N 40°35' W 074°13'0 0.0
2017-Nov-14 08:56N 40°35' W 074°13'0 0.0
2017-Nov-14 08:26N 40°35' W 074°13'0 0.0
2017-Nov-14 07:56N 40°35' W 074°13'0 0.0
2017-Nov-14 07:26N 40°35' W 074°13'0 0.0
2017-Nov-14 06:50N 40°35' W 074°13'0 0.0
2017-Nov-14 06:23N 40°35' W 074°13'0 0.0
2017-Nov-14 06:00N 40°35' W 074°13'1 2.6
2017-Nov-14 05:30N 40°34' W 074°13'3 5.1
2017-Nov-14 05:00N 40°32' W 074°15'2 4.7
2017-Nov-14 04:30N 40°30' W 074°14'4 9.0
2017-Nov-14 04:00N 40°30' W 074°08'510.7
2017-Nov-14 03:30N 40°29' W 074°01'4 8.5
2017-Nov-14 03:00N 40°27' W 073°56'4 7.1
2017-Nov-14 02:30N 40°27' W 073°51'3 6.6
2017-Nov-14 02:00N 40°27' W 073°47'4 7.0
2017-Nov-14 01:30N 40°29' W 073°43'1 1.2
2017-Nov-14 00:59N 40°29' W 073°42'0 0.0
2017-Nov-14 00:29N 40°29' W 073°42'0 0.0
2017-Nov-13 23:59N 40°29' W 073°42'0 0.0
2017-Nov-13 21:38N 40°29' W 073°42'0 0.0
2017-Nov-13 01:59N 40°29' W 073°42'0 0.0
2017-Nov-13 01:05N 40°29' W 073°42'0 0.0
2017-Nov-13 00:56N 40°29' W 073°42'0 0.1
2017-Nov-12 23:59N 40°29' W 073°42'0 0.1
2017-Nov-12 22:44N 40°29' W 073°42'0 0.1
2017-Nov-12 22:23N 40°29' W 073°42'0 0.0
2017-Nov-12 21:56N 40°29' W 073°42'0 0.0
2017-Nov-12 21:23N 40°29' W 073°42'0 0.0
2017-Nov-12 20:26N 40°29' W 073°42'0 0.1
2017-Nov-12 19:56N 40°29' W 073°42'0 0.0
2017-Nov-12 19:29N 40°29' W 073°42'0 0.0
2017-Nov-12 18:47N 40°29' W 073°42'0 0.1
2017-Nov-12 18:26N 40°29' W 073°42'0 0.1
2017-Nov-12 17:56N 40°29' W 073°42'0 0.1
2017-Nov-12 17:26N 40°29' W 073°42'0 0.1
2017-Nov-12 16:59N 40°29' W 073°42'0 0.1
2017-Nov-12 16:29N 40°29' W 073°42'0 0.1
2017-Nov-12 15:26N 40°29' W 073°42'0 0.1
2017-Nov-12 14:50N 40°29' W 073°42'0 0.1
2017-Nov-12 14:29N 40°29' W 073°42'0 0.1
2017-Nov-12 13:59N 40°29' W 073°42'0 0.0
2017-Nov-12 13:26N 40°29' W 073°42'0 0.0
2017-Nov-12 12:50N 40°29' W 073°42'0 0.0
2017-Nov-12 12:26N 40°29' W 073°42'0 0.0
2017-Nov-12 11:53N 40°29' W 073°42'0 0.0
2017-Nov-12 11:26N 40°29' W 073°42'0 0.0
2017-Nov-12 10:50N 40°29' W 073°42'0 0.1
2017-Nov-12 10:29N 40°29' W 073°42'0 0.0
2017-Nov-12 09:56N 40°29' W 073°42'0 0.1
2017-Nov-12 09:29N 40°29' W 073°42'0 0.0
2017-Nov-12 08:26N 40°29' W 073°42'0 0.1
2017-Nov-12 07:56N 40°29' W 073°42'0 0.0
2017-Nov-12 07:26N 40°29' W 073°42'0 0.1
2017-Nov-12 06:56N 40°29' W 073°42'0 0.1
2017-Nov-12 06:17N 40°29' W 073°42'0 0.1
2017-Nov-12 05:47N 40°29' W 073°42'0 0.1
2017-Nov-12 05:23N 40°29' W 073°42'0 0.1
2017-Nov-12 04:38N 40°29' W 073°42'0 0.0
2017-Nov-12 04:26N 40°29' W 073°42'0 0.0
2017-Nov-12 03:41N 40°29' W 073°42'0 0.1
2017-Nov-12 03:14N 40°29' W 073°42'0 0.2
2017-Nov-12 02:56N 40°29' W 073°42'0 0.1
2017-Nov-12 02:26N 40°29' W 073°42'0 0.1
2017-Nov-12 01:59N 40°29' W 073°42'0 0.0
2017-Nov-12 01:29N 40°29' W 073°42'0 0.0
2017-Nov-12 00:44N 40°29' W 073°42'0 0.0
2017-Nov-12 00:29N 40°29' W 073°42'0 0.0
2017-Nov-11 23:56N 40°29' W 073°42'0 0.0
2017-Nov-11 23:02N 40°29' W 073°42'0 0.0
2017-Nov-11 22:56N 40°29' W 073°42'0 0.0
2017-Nov-11 22:14N 40°29' W 073°42'0 0.0
2017-Nov-11 21:14N 40°29' W 073°42'0 0.0
2017-Nov-11 20:59N 40°29' W 073°42'0 0.0
2017-Nov-11 20:26N 40°29' W 073°42'0 0.0
2017-Nov-11 19:56N 40°29' W 073°42'0 0.1
2017-Nov-11 19:23N 40°29' W 073°42'0 0.0
2017-Nov-11 18:59N 40°29' W 073°42'0 0.0
2017-Nov-11 18:26N 40°29' W 073°42'0 0.1
2017-Nov-11 17:59N 40°29' W 073°42'0 0.1
2017-Nov-11 17:26N 40°29' W 073°42'0 0.0
2017-Nov-11 16:23N 40°29' W 073°42'0 0.0
2017-Nov-11 15:59N 40°29' W 073°42'0 0.0
2017-Nov-11 15:26N 40°29' W 073°42'0 0.0
2017-Nov-11 14:59N 40°29' W 073°42'0 0.0
2017-Nov-11 14:26N 40°29' W 073°42'0 0.0
2017-Nov-11 13:56N 40°29' W 073°42'0 0.0
2017-Nov-11 13:26N 40°29' W 073°42'0 0.0
2017-Nov-11 12:08N 40°29' W 073°42'0 0.1
2017-Nov-11 11:59N 40°29' W 073°42'0 0.0
2017-Nov-11 11:23N 40°29' W 073°42'0 0.0
2017-Nov-11 10:59N 40°29' W 073°42'0 0.0
2017-Nov-11 10:26N 40°29' W 073°42'0 0.0
2017-Nov-11 09:56N 40°29' W 073°42'0 0.1
2017-Nov-11 09:29N 40°29' W 073°42'0 0.0
2017-Nov-11 08:59N 40°29' W 073°42'0 0.0
2017-Nov-11 08:17N 40°29' W 073°42'0 0.0
2017-Nov-11 07:53N 40°29' W 073°42'0 0.1
2017-Nov-11 07:29N 40°29' W 073°42'0 0.0
2017-Nov-11 06:47N 40°29' W 073°42'0 0.0
2017-Nov-11 06:26N 40°29' W 073°42'0 0.0
2017-Nov-11 05:59N 40°29' W 073°42'0 0.1
2017-Nov-11 05:26N 40°29' W 073°42'0 0.1
2017-Nov-11 04:56N 40°29' W 073°42'0 0.1
2017-Nov-11 04:29N 40°29' W 073°42'0 0.1
2017-Nov-11 03:59N 40°29' W 073°42'0 0.1
2017-Nov-11 03:23N 40°29' W 073°42'0 0.0
2017-Nov-11 02:59N 40°29' W 073°42'0 0.1
2017-Nov-11 02:23N 40°29' W 073°42'0 0.0
2017-Nov-11 01:59N 40°29' W 073°42'0 0.2
2017-Nov-11 01:29N 40°29' W 073°42'0 0.2
2017-Nov-11 00:59N 40°29' W 073°42'0 0.1
2017-Nov-11 00:29N 40°29' W 073°42'0 0.0
2017-Nov-10 22:53N 40°29' W 073°42'0 0.1
2017-Nov-10 22:11N 40°29' W 073°42'0 0.1
2017-Nov-10 21:56N 40°29' W 073°42'0 0.0
2017-Nov-10 21:20N 40°29' W 073°42'0 0.2
2017-Nov-10 20:36N 40°29' W 073°42'0 1.1
2017-Nov-10 20:29N 40°29' W 073°42'5 7.9
2017-Nov-10 19:55N 40°27' W 073°47'4 9.6
2017-Nov-10 19:30N 40°27' W 073°52'5 9.2
2017-Nov-10 19:00N 40°28' W 073°58'611.5
2017-Nov-10 18:30N 40°29' W 074°06'610.8
2017-Nov-10 17:59N 40°30' W 074°13'2 4.4
2017-Nov-10 17:30N 40°32' W 074°15'2 4.6
2017-Nov-10 17:00N 40°33' W 074°13'3 5.7
2017-Nov-10 16:30N 40°36' W 074°12'0 0.7
2017-Nov-10 15:59N 40°37' W 074°12'0 0.0
2017-Nov-10 15:29N 40°37' W 074°12'0 0.0
2017-Nov-10 14:53N 40°37' W 074°12'0 0.0
2017-Nov-10 14:29N 40°37' W 074°12'0 0.0
2017-Nov-10 13:59N 40°37' W 074°12'0 0.0
2017-Nov-10 13:14N 40°37' W 074°12'0 0.0
2017-Nov-10 12:59N 40°37' W 074°12'0 0.0
2017-Nov-10 12:29N 40°37' W 074°12'0 0.0
2017-Nov-10 11:59N 40°37' W 074°12'0 0.0
2017-Nov-10 11:26N 40°37' W 074°12'0 0.0
2017-Nov-10 10:59N 40°37' W 074°12'0 0.0
2017-Nov-10 10:29N 40°37' W 074°12'0 0.0
2017-Nov-10 09:59N 40°37' W 074°12'0 0.0
2017-Nov-10 09:29N 40°37' W 074°12'0 0.0
2017-Nov-10 08:56N 40°37' W 074°12'0 0.0
2017-Nov-10 08:29N 40°37' W 074°12'0 0.0
2017-Nov-10 07:56N 40°37' W 074°12'0 0.0
2017-Nov-10 07:29N 40°37' W 074°12'0 0.0
2017-Nov-10 06:59N 40°37' W 074°12'0 0.0
2017-Nov-10 06:29N 40°37' W 074°12'0 0.0
2017-Nov-10 05:53N 40°37' W 074°12'0 0.0
2017-Nov-10 05:29N 40°37' W 074°12'0 0.0
2017-Nov-10 04:59N 40°37' W 074°12'0 0.0
2017-Nov-10 04:29N 40°37' W 074°12'0 0.0
2017-Nov-10 03:56N 40°37' W 074°12'0 0.0
2017-Nov-10 03:29N 40°37' W 074°12'0 0.0
2017-Nov-10 02:59N 40°37' W 074°12'0 0.0
2017-Nov-10 02:29N 40°37' W 074°12'0 0.0
2017-Nov-10 01:59N 40°37' W 074°12'0 0.0
2017-Nov-10 01:29N 40°37' W 074°12'0 0.0
2017-Nov-10 00:59N 40°37' W 074°12'0 0.0
2017-Nov-10 00:29N 40°37' W 074°12'0 0.0
2017-Nov-09 23:53N 40°37' W 074°12'0 0.0
2017-Nov-09 23:30N 40°37' W 074°12'1 1.7
2017-Nov-09 23:00N 40°37' W 074°12'3 5.2
2017-Nov-09 22:30N 40°39' W 074°09'3 6.9
2017-Nov-09 22:01N 40°39' W 074°05'1 2.7
2017-Nov-09 21:30N 40°38' W 074°04'0 0.0
2017-Nov-09 21:00N 40°38' W 074°04'0 0.0
2017-Nov-09 20:30N 40°38' W 074°04'0 0.0
2017-Nov-09 20:00N 40°38' W 074°04'0 0.3
2017-Nov-09 19:30N 40°38' W 074°04'0 0.2
2017-Nov-09 19:00N 40°38' W 074°04'0 0.1
2017-Nov-09 18:30N 40°38' W 074°04'0 0.0
2017-Nov-09 18:00N 40°38' W 074°04'0 0.0
2017-Nov-09 17:30N 40°38' W 074°04'0 0.0
2017-Nov-09 17:00N 40°38' W 074°04'0 0.0
2017-Nov-09 16:30N 40°38' W 074°04'0 0.0
2017-Nov-09 16:00N 40°38' W 074°04'0 0.0
2017-Nov-09 15:30N 40°38' W 074°04'0 0.1
2017-Nov-09 15:00N 40°38' W 074°04'0 0.0
2017-Nov-09 14:30N 40°38' W 074°04'0 0.3
2017-Nov-09 14:00N 40°38' W 074°04'0 0.2
2017-Nov-09 13:30N 40°38' W 074°04'0 0.1
2017-Nov-09 13:00N 40°38' W 074°04'0 0.0
2017-Nov-09 12:30N 40°38' W 074°04'0 0.0
2017-Nov-09 12:00N 40°38' W 074°04'0 0.0
2017-Nov-09 11:30N 40°38' W 074°04'0 0.0
2017-Nov-09 11:00N 40°38' W 074°04'0 0.0
2017-Nov-09 10:30N 40°38' W 074°04'0 0.0
2017-Nov-09 10:00N 40°38' W 074°04'0 0.0
2017-Nov-09 09:30N 40°38' W 074°04'0 0.0
2017-Nov-09 09:00N 40°38' W 074°04'0 0.0
2017-Nov-09 08:30N 40°38' W 074°04'0 0.0
2017-Nov-09 08:00N 40°38' W 074°04'0 0.0
2017-Nov-09 07:30N 40°38' W 074°04'0 0.0
2017-Nov-09 07:00N 40°38' W 074°04'0 0.4
2017-Nov-09 06:30N 40°38' W 074°04'0 0.1
2017-Nov-09 06:00N 40°38' W 074°04'0 0.0
2017-Nov-09 05:30N 40°38' W 074°04'0 0.0
2017-Nov-09 05:00N 40°38' W 074°04'0 0.1
2017-Nov-09 04:30N 40°38' W 074°04'1 2.7
2017-Nov-09 04:00N 40°37' W 074°03'612.3
2017-Nov-09 03:30N 40°31' W 073°60'510.9
2017-Nov-09 03:00N 40°28' W 073°54'5 9.1
2017-Nov-09 02:30N 40°29' W 073°60'510.7
2017-Nov-09 02:00N 40°30' W 074°07'510.2
2017-Nov-09 01:30N 40°29' W 074°14'3 5.9
2017-Nov-09 01:00N 40°32' W 074°15'2 4.6
2017-Nov-09 00:29N 40°34' W 074°13'  
Track history (hours):
 
Tides and Currents Weather Stations Pressure Air Temp Water Temp Dewpoint Dewpoint Depression Visibility Wind Speed Wind Dir Waves Ship Positions

Hafnia Nordica

Last reported at 2017-Nov-18 23:25 UTC. Time now 2017-Nov-20 09:57 UTC.
Position N 25°34' W 079°33'.

Length 186 m; draft 7.5 m.

Type: Ship. MMSI: 249460000.

Date/timePositionNaut miles runAvg speedWind from/ knotsBaromVisibWave heightAir tempDewpointWater temp
2017-Nov-18 23:25N 25°34' W 079°33'511.0
2017-Nov-18 23:00N 25°39' W 079°33'911.1
2017-Nov-18 22:10N 25°48' W 079°31'211.2
2017-Nov-18 22:01N 25°50' W 079°30'1911.2
2017-Nov-18 20:20N 26°08' W 079°27'711.7
2017-Nov-18 19:43N 26°15' W 079°26'  
2017-Nov-15 01:57N 40°26' W 073°48'4 8.7
2017-Nov-15 01:30N 40°28' W 073°52'611.5
2017-Nov-15 01:00N 40°31' W 073°59'612.3
2017-Nov-15 00:30N 40°36' W 074°03'4 7.5
2017-Nov-15 00:00N 40°39' W 074°06'3 7.0
2017-Nov-14 23:30N 40°39' W 074°11'1 2.9
2017-Nov-14 23:00N 40°38' W 074°12'1 2.2
2017-Nov-14 22:30N 40°37' W 074°12'2 0.5
2017-Nov-14 19:08N 40°35' W 074°13'0 0.0
2017-Nov-14 18:44N 40°35' W 074°13'0 0.0
2017-Nov-14 18:26N 40°35' W 074°13'0 0.0
2017-Nov-14 17:56N 40°35' W 074°13'0 0.0
2017-Nov-14 15:56N 40°35' W 074°13'0 0.0
2017-Nov-14 15:26N 40°35' W 074°13'0 0.0
2017-Nov-14 13:44N 40°35' W 074°13'0 0.0
2017-Nov-14 13:20N 40°35' W 074°13'0 0.0
2017-Nov-14 12:44N 40°35' W 074°13'0 0.0
2017-Nov-14 12:26N 40°35' W 074°13'0 0.0
2017-Nov-14 11:38N 40°35' W 074°13'0 0.0
2017-Nov-14 11:26N 40°35' W 074°13'0 0.0
2017-Nov-14 10:56N 40°35' W 074°13'0 0.0
2017-Nov-14 10:20N 40°35' W 074°13'0 0.0
2017-Nov-14 09:56N 40°35' W 074°13'0 0.0
2017-Nov-14 09:20N 40°35' W 074°13'0 0.0
2017-Nov-14 08:56N 40°35' W 074°13'0 0.0
2017-Nov-14 08:26N 40°35' W 074°13'0 0.0
2017-Nov-14 07:56N 40°35' W 074°13'0 0.0
2017-Nov-14 07:26N 40°35' W 074°13'0 0.0
2017-Nov-14 06:50N 40°35' W 074°13'0 0.0
2017-Nov-14 06:23N 40°35' W 074°13'0 0.0
2017-Nov-14 06:00N 40°35' W 074°13'1 2.6
2017-Nov-14 05:30N 40°34' W 074°13'3 5.1
2017-Nov-14 05:00N 40°32' W 074°15'2 4.7
2017-Nov-14 04:30N 40°30' W 074°14'4 9.0
2017-Nov-14 04:00N 40°30' W 074°08'510.7
2017-Nov-14 03:30N 40°29' W 074°01'4 8.5
2017-Nov-14 03:00N 40°27' W 073°56'4 7.1
2017-Nov-14 02:30N 40°27' W 073°51'3 6.6
2017-Nov-14 02:00N 40°27' W 073°47'4 7.0
2017-Nov-14 01:30N 40°29' W 073°43'1 1.2
2017-Nov-14 00:59N 40°29' W 073°42'0 0.0
2017-Nov-14 00:29N 40°29' W 073°42'0 0.0
2017-Nov-13 23:59N 40°29' W 073°42'0 0.0
2017-Nov-13 21:38N 40°29' W 073°42'0 0.0
2017-Nov-13 01:59N 40°29' W 073°42'0 0.0
2017-Nov-13 01:05N 40°29' W 073°42'0 0.0
2017-Nov-13 00:56N 40°29' W 073°42'0 0.1
2017-Nov-12 23:59N 40°29' W 073°42'0 0.1
2017-Nov-12 22:44N 40°29' W 073°42'0 0.1
2017-Nov-12 22:23N 40°29' W 073°42'0 0.0
2017-Nov-12 21:56N 40°29' W 073°42'0 0.0
2017-Nov-12 21:23N 40°29' W 073°42'0 0.0
2017-Nov-12 20:26N 40°29' W 073°42'0 0.1
2017-Nov-12 19:56N 40°29' W 073°42'0 0.0
2017-Nov-12 19:29N 40°29' W 073°42'0 0.0
2017-Nov-12 18:47N 40°29' W 073°42'0 0.1
2017-Nov-12 18:26N 40°29' W 073°42'0 0.1
2017-Nov-12 17:56N 40°29' W 073°42'0 0.1
2017-Nov-12 17:26N 40°29' W 073°42'0 0.1
2017-Nov-12 16:59N 40°29' W 073°42'0 0.1
2017-Nov-12 16:29N 40°29' W 073°42'0 0.1
2017-Nov-12 15:26N 40°29' W 073°42'0 0.1
2017-Nov-12 14:50N 40°29' W 073°42'0 0.1
2017-Nov-12 14:29N 40°29' W 073°42'0 0.1
2017-Nov-12 13:59N 40°29' W 073°42'0 0.0
2017-Nov-12 13:26N 40°29' W 073°42'0 0.0
2017-Nov-12 12:50N 40°29' W 073°42'0 0.0
2017-Nov-12 12:26N 40°29' W 073°42'0 0.0
2017-Nov-12 11:53N 40°29' W 073°42'0 0.0
2017-Nov-12 11:26N 40°29' W 073°42'0 0.0
2017-Nov-12 10:50N 40°29' W 073°42'0 0.1
2017-Nov-12 10:29N 40°29' W 073°42'0 0.0
2017-Nov-12 09:56N 40°29' W 073°42'0 0.1
2017-Nov-12 09:29N 40°29' W 073°42'0 0.0
2017-Nov-12 08:26N 40°29' W 073°42'0 0.1
2017-Nov-12 07:56N 40°29' W 073°42'0 0.0
2017-Nov-12 07:26N 40°29' W 073°42'0 0.1
2017-Nov-12 06:56N 40°29' W 073°42'0 0.1
2017-Nov-12 06:17N 40°29' W 073°42'0 0.1
2017-Nov-12 05:47N 40°29' W 073°42'0 0.1
2017-Nov-12 05:23N 40°29' W 073°42'0 0.1
2017-Nov-12 04:38N 40°29' W 073°42'0 0.0
2017-Nov-12 04:26N 40°29' W 073°42'0 0.0
2017-Nov-12 03:41N 40°29' W 073°42'0 0.1
2017-Nov-12 03:14N 40°29' W 073°42'0 0.2
2017-Nov-12 02:56N 40°29' W 073°42'0 0.1
2017-Nov-12 02:26N 40°29' W 073°42'0 0.1
2017-Nov-12 01:59N 40°29' W 073°42'0 0.0
2017-Nov-12 01:29N 40°29' W 073°42'0 0.0
2017-Nov-12 00:44N 40°29' W 073°42'0 0.0
2017-Nov-12 00:29N 40°29' W 073°42'0 0.0
2017-Nov-11 23:56N 40°29' W 073°42'0 0.0
2017-Nov-11 23:02N 40°29' W 073°42'0 0.0
2017-Nov-11 22:56N 40°29' W 073°42'0 0.0
2017-Nov-11 22:14N 40°29' W 073°42'0 0.0
2017-Nov-11 21:14N 40°29' W 073°42'0 0.0
2017-Nov-11 20:59N 40°29' W 073°42'0 0.0
2017-Nov-11 20:26N 40°29' W 073°42'0 0.0
2017-Nov-11 19:56N 40°29' W 073°42'0 0.1
2017-Nov-11 19:23N 40°29' W 073°42'0 0.0
2017-Nov-11 18:59N 40°29' W 073°42'0 0.0
2017-Nov-11 18:26N 40°29' W 073°42'0 0.1
2017-Nov-11 17:59N 40°29' W 073°42'0 0.1
2017-Nov-11 17:26N 40°29' W 073°42'0 0.0
2017-Nov-11 16:23N 40°29' W 073°42'0 0.0
2017-Nov-11 15:59N 40°29' W 073°42'0 0.0
2017-Nov-11 15:26N 40°29' W 073°42'0 0.0
2017-Nov-11 14:59N 40°29' W 073°42'0 0.0
2017-Nov-11 14:26N 40°29' W 073°42'0 0.0
2017-Nov-11 13:56N 40°29' W 073°42'0 0.0
2017-Nov-11 13:26N 40°29' W 073°42'0 0.0
2017-Nov-11 12:08N 40°29' W 073°42'0 0.1
2017-Nov-11 11:59N 40°29' W 073°42'0 0.0
2017-Nov-11 11:23N 40°29' W 073°42'0 0.0
2017-Nov-11 10:59N 40°29' W 073°42'0 0.0
2017-Nov-11 10:26N 40°29' W 073°42'0 0.0
2017-Nov-11 09:56N 40°29' W 073°42'0 0.1
2017-Nov-11 09:29N 40°29' W 073°42'0 0.0
2017-Nov-11 08:59N 40°29' W 073°42'0 0.0
2017-Nov-11 08:17N 40°29' W 073°42'0 0.0
2017-Nov-11 07:53N 40°29' W 073°42'0 0.1
2017-Nov-11 07:29N 40°29' W 073°42'0 0.0
2017-Nov-11 06:47N 40°29' W 073°42'0 0.0
2017-Nov-11 06:26N 40°29' W 073°42'0 0.0
2017-Nov-11 05:59N 40°29' W 073°42'0 0.1
2017-Nov-11 05:26N 40°29' W 073°42'0 0.1
2017-Nov-11 04:56N 40°29' W 073°42'0 0.1
2017-Nov-11 04:29N 40°29' W 073°42'0 0.1
2017-Nov-11 03:59N 40°29' W 073°42'0 0.1
2017-Nov-11 03:23N 40°29' W 073°42'0 0.0
2017-Nov-11 02:59N 40°29' W 073°42'0 0.1
2017-Nov-11 02:23N 40°29' W 073°42'0 0.0
2017-Nov-11 01:59N 40°29' W 073°42'0 0.2
2017-Nov-11 01:29N 40°29' W 073°42'0 0.2
2017-Nov-11 00:59N 40°29' W 073°42'0 0.1
2017-Nov-11 00:29N 40°29' W 073°42'0 0.0
2017-Nov-10 22:53N 40°29' W 073°42'0 0.1
2017-Nov-10 22:11N 40°29' W 073°42'0 0.1
2017-Nov-10 21:56N 40°29' W 073°42'0 0.0
2017-Nov-10 21:20N 40°29' W 073°42'0 0.2
2017-Nov-10 20:36N 40°29' W 073°42'0 1.1
2017-Nov-10 20:29N 40°29' W 073°42'5 7.9
2017-Nov-10 19:55N 40°27' W 073°47'4 9.6
2017-Nov-10 19:30N 40°27' W 073°52'5 9.2
2017-Nov-10 19:00N 40°28' W 073°58'611.5
2017-Nov-10 18:30N 40°29' W 074°06'610.8
2017-Nov-10 17:59N 40°30' W 074°13'2 4.4
2017-Nov-10 17:30N 40°32' W 074°15'2 4.6
2017-Nov-10 17:00N 40°33' W 074°13'3 5.7
2017-Nov-10 16:30N 40°36' W 074°12'0 0.7
2017-Nov-10 15:59N 40°37' W 074°12'0 0.0
2017-Nov-10 15:29N 40°37' W 074°12'0 0.0
2017-Nov-10 14:53N 40°37' W 074°12'0 0.0
2017-Nov-10 14:29N 40°37' W 074°12'0 0.0
2017-Nov-10 13:59N 40°37' W 074°12'0 0.0
2017-Nov-10 13:14N 40°37' W 074°12'0 0.0
2017-Nov-10 12:59N 40°37' W 074°12'0 0.0
2017-Nov-10 12:29N 40°37' W 074°12'0 0.0
2017-Nov-10 11:59N 40°37' W 074°12'0 0.0
2017-Nov-10 11:26N 40°37' W 074°12'0 0.0
2017-Nov-10 10:59N 40°37' W 074°12'0 0.0
2017-Nov-10 10:29N 40°37' W 074°12'0 0.0
2017-Nov-10 09:59N 40°37' W 074°12'0 0.0
2017-Nov-10 09:29N 40°37' W 074°12'0 0.0
2017-Nov-10 08:56N 40°37' W 074°12'0 0.0
2017-Nov-10 08:29N 40°37' W 074°12'0 0.0
2017-Nov-10 07:56N 40°37' W 074°12'0 0.0
2017-Nov-10 07:29N 40°37' W 074°12'0 0.0
2017-Nov-10 06:59N 40°37' W 074°12'0 0.0
2017-Nov-10 06:29N 40°37' W 074°12'0 0.0
2017-Nov-10 05:53N 40°37' W 074°12'0 0.0
2017-Nov-10 05:29N 40°37' W 074°12'0 0.0
2017-Nov-10 04:59N 40°37' W 074°12'0 0.0
2017-Nov-10 04:29N 40°37' W 074°12'0 0.0
2017-Nov-10 03:56N 40°37' W 074°12'0 0.0
2017-Nov-10 03:29N 40°37' W 074°12'0 0.0
2017-Nov-10 02:59N 40°37' W 074°12'0 0.0
2017-Nov-10 02:29N 40°37' W 074°12'0 0.0
2017-Nov-10 01:59N 40°37' W 074°12'0 0.0
2017-Nov-10 01:29N 40°37' W 074°12'0 0.0
2017-Nov-10 00:59N 40°37' W 074°12'0 0.0
2017-Nov-10 00:29N 40°37' W 074°12'0 0.0
2017-Nov-09 23:53N 40°37' W 074°12'0 0.0
2017-Nov-09 23:30N 40°37' W 074°12'1 1.7
2017-Nov-09 23:00N 40°37' W 074°12'3 5.2
2017-Nov-09 22:30N 40°39' W 074°09'3 6.9
2017-Nov-09 22:01N 40°39' W 074°05'1 2.7
2017-Nov-09 21:30N 40°38' W 074°04'0 0.0
2017-Nov-09 21:00N 40°38' W 074°04'0 0.0
2017-Nov-09 20:30N 40°38' W 074°04'0 0.0
2017-Nov-09 20:00N 40°38' W 074°04'0 0.3
2017-Nov-09 19:30N 40°38' W 074°04'0 0.2
2017-Nov-09 19:00N 40°38' W 074°04'0 0.1
2017-Nov-09 18:30N 40°38' W 074°04'0 0.0
2017-Nov-09 18:00N 40°38' W 074°04'0 0.0
2017-Nov-09 17:30N 40°38' W 074°04'0 0.0
2017-Nov-09 17:00N 40°38' W 074°04'0 0.0
2017-Nov-09 16:30N 40°38' W 074°04'0 0.0
2017-Nov-09 16:00N 40°38' W 074°04'0 0.0
2017-Nov-09 15:30N 40°38' W 074°04'0 0.1
2017-Nov-09 15:00N 40°38' W 074°04'0 0.0
2017-Nov-09 14:30N 40°38' W 074°04'0 0.3
2017-Nov-09 14:00N 40°38' W 074°04'0 0.2
2017-Nov-09 13:30N 40°38' W 074°04'0 0.1
2017-Nov-09 13:00N 40°38' W 074°04'0 0.0
2017-Nov-09 12:30N 40°38' W 074°04'0 0.0
2017-Nov-09 12:00N 40°38' W 074°04'0 0.0
2017-Nov-09 11:30N 40°38' W 074°04'0 0.0
2017-Nov-09 11:00N 40°38' W 074°04'0 0.0
2017-Nov-09 10:30N 40°38' W 074°04'0 0.0
2017-Nov-09 10:00N 40°38' W 074°04'0 0.0
2017-Nov-09 09:30N 40°38' W 074°04'0 0.0
2017-Nov-09 09:00N 40°38' W 074°04'0 0.0
2017-Nov-09 08:30N 40°38' W 074°04'0 0.0
2017-Nov-09 08:00N 40°38' W 074°04'0 0.0
2017-Nov-09 07:30N 40°38' W 074°04'0 0.0
2017-Nov-09 07:00N 40°38' W 074°04'0 0.4
2017-Nov-09 06:30N 40°38' W 074°04'0 0.1
2017-Nov-09 06:00N 40°38' W 074°04'0 0.0
2017-Nov-09 05:30N 40°38' W 074°04'0 0.0
2017-Nov-09 05:00N 40°38' W 074°04'0 0.1
2017-Nov-09 04:30N 40°38' W 074°04'1 2.7
2017-Nov-09 04:00N 40°37' W 074°03'612.3
2017-Nov-09 03:30N 40°31' W 073°60'510.9
2017-Nov-09 03:00N 40°28' W 073°54'5 9.1
2017-Nov-09 02:30N 40°29' W 073°60'510.7
2017-Nov-09 02:00N 40°30' W 074°07'510.2
2017-Nov-09 01:30N 40°29' W 074°14'3 5.9
2017-Nov-09 01:00N 40°32' W 074°15'2 4.6
2017-Nov-09 00:29N 40°34' W 074°13'  

Dump ship's entire track history